Sherman, Texas
Current Conditions -  °F | °C
As of 10:35 AM on Tuesday 21 Oct 2014 (Local Time) from KGYI Reporting Station
Clear Clear  
Wind Chill: 72°   Ceiling: Unl
Heat Index: 72°   Visibility: 10mi
Dew Point: 63°   Wind: 0mph
Humidity: 73%   Direction: NA
Pressure: 30.13"   Gusts: NA
Location:  33.64°N, 96.61°W
Report Text: KGYI 211535Z AUTO 00000KT 10SM CLR 22/17 A3013 RMK AO2 T02200170
Loading
Personal Weather Stations






























Interactive Weather Map New forecast layout! Learn more

10-Day Weather Forecast

Advertisements
Track Severe Weather on mobile